sensor_id;sensor_type;location;lat;lon;timestamp;pressure;altitude;pressure_sealevel;temperature;humidity
11395;BME280;5753;54.402;10.220;2023-02-17T00:00:23;101517.34;;;13.58;82.29
11395;BME280;5753;54.402;10.220;2023-02-17T00:02:49;101519.84;;;14.17;82.78
11395;BME280;5753;54.402;10.220;2023-02-17T00:05:15;101512.25;;;13.66;87.66
11395;BME280;5753;54.402;10.220;2023-02-17T00:07:41;101510.53;;;12.60;93.22
11395;BME280;5753;54.402;10.220;2023-02-17T00:10:08;101497.66;;;14.39;86.02
11395;BME280;5753;54.402;10.220;2023-02-17T00:12:34;101486.47;;;15.46;77.73
11395;BME280;5753;54.402;10.220;2023-02-17T00:15:01;101479.66;;;15.60;75.70
11395;BME280;5753;54.402;10.220;2023-02-17T00:17:27;101473.22;;;15.06;80.77
11395;BME280;5753;54.402;10.220;2023-02-17T00:19:54;101473.91;;;14.05;85.45
11395;BME280;5753;54.402;10.220;2023-02-17T00:22:20;101470.13;;;13.77;87.59
11395;BME280;5753;54.402;10.220;2023-02-17T00:24:47;101464.72;;;15.29;78.69
11395;BME280;5753;54.402;10.220;2023-02-17T00:27:13;101466.72;;;15.63;75.10
11395;BME280;5753;54.402;10.220;2023-02-17T00:29:39;101461.56;;;15.77;74.80
11395;BME280;5753;54.402;10.220;2023-02-17T00:32:05;101458.47;;;14.16;82.76
11395;BME280;5753;54.402;10.220;2023-02-17T00:34:32;101459.06;;;14.68;80.22
11395;BME280;5753;54.402;10.220;2023-02-17T00:36:58;101438.00;;;15.53;76.29
11395;BME280;5753;54.402;10.220;2023-02-17T00:39:24;101431.31;;;14.64;84.25
11395;BME280;5753;54.402;10.220;2023-02-17T00:41:50;101429.41;;;14.43;84.39
11395;BME280;5753;54.402;10.220;2023-02-17T00:44:19;101442.19;;;13.55;89.06
11395;BME280;5753;54.402;10.220;2023-02-17T00:46:46;101429.13;;;14.18;86.63
11395;BME280;5753;54.402;10.220;2023-02-17T00:49:20;101434.66;;;14.47;84.37
11395;BME280;5753;54.402;10.220;2023-02-17T00:51:47;101427.44;;;14.19;89.69
11395;BME280;5753;54.402;10.220;2023-02-17T00:54:14;101428.22;;;13.44;94.88
11395;BME280;5753;54.402;10.220;2023-02-17T00:56:40;101432.38;;;13.31;94.18
11395;BME280;5753;54.402;10.220;2023-02-17T00:59:07;101413.41;;;14.94;84.42
11395;BME280;5753;54.402;10.220;2023-02-17T01:01:34;101407.66;;;14.30;88.18
11395;BME280;5753;54.402;10.220;2023-02-17T01:04:01;101415.69;;;13.74;92.85
11395;BME280;5753;54.402;10.220;2023-02-17T01:06:33;101414.28;;;14.96;83.11
11395;BME280;5753;54.402;10.220;2023-02-17T01:08:59;101406.72;;;15.30;81.27
11395;BME280;5753;54.402;10.220;2023-02-17T01:11:28;101402.91;;;14.74;84.58
11395;BME280;5753;54.402;10.220;2023-02-17T01:13:56;101396.88;;;13.91;89.66
11395;BME280;5753;54.402;10.220;2023-02-17T01:16:28;101400.34;;;13.94;92.28
11395;BME280;5753;54.402;10.220;2023-02-17T01:18:55;101395.94;;;13.85;91.38
11395;BME280;5753;54.402;10.220;2023-02-17T01:21:23;101403.97;;;13.36;93.99
11395;BME280;5753;54.402;10.220;2023-02-17T01:23:52;101397.44;;;13.68;92.43
11395;BME280;5753;54.402;10.220;2023-02-17T01:26:21;101398.13;;;13.53;93.21
11395;BME280;5753;54.402;10.220;2023-02-17T01:28:48;101393.53;;;13.30;97.71
11395;BME280;5753;54.402;10.220;2023-02-17T01:31:15;101381.59;;;13.41;96.42
11395;BME280;5753;54.402;10.220;2023-02-17T01:33:42;101371.22;;;13.41;97.82
11395;BME280;5753;54.402;10.220;2023-02-17T01:36:10;101385.00;;;12.81;98.82
11395;BME280;5753;54.402;10.220;2023-02-17T01:38:36;101385.00;;;12.81;100.00
11395;BME280;5753;54.402;10.220;2023-02-17T01:41:04;101361.09;;;13.59;96.83
11395;BME280;5753;54.402;10.220;2023-02-17T01:43:32;101345.47;;;13.51;97.27
11395;BME280;5753;54.402;10.220;2023-02-17T01:45:59;101344.69;;;12.95;100.00
11395;BME280;5753;54.402;10.220;2023-02-17T01:48:34;101330.91;;;14.47;94.12
11395;BME280;5753;54.402;10.220;2023-02-17T01:51:12;101324.13;;;13.72;98.38
11395;BME280;5753;54.402;10.220;2023-02-17T01:56:13;101330.47;;;14.05;93.55
11395;BME280;5753;54.402;10.220;2023-02-17T01:58:42;101323.56;;;14.04;95.08
11395;BME280;5753;54.402;10.220;2023-02-17T02:01:10;101330.25;;;13.12;99.54
11395;BME280;5753;54.402;10.220;2023-02-17T02:03:37;101317.63;;;14.17;94.07
11395;BME280;5753;54.402;10.220;2023-02-17T02:06:12;101309.34;;;13.65;97.15
11395;BME280;5753;54.402;10.220;2023-02-17T02:08:57;101304.94;;;13.58;99.27
11395;BME280;5753;54.402;10.220;2023-02-17T02:11:26;101309.66;;;13.93;94.62
11395;BME280;5753;54.402;10.220;2023-02-17T02:13:52;101292.81;;;13.54;99.72
11395;BME280;5753;54.402;10.220;2023-02-17T02:22:34;101284.44;;;13.75;98.28
11395;BME280;5753;54.402;10.220;2023-02-17T02:28:25;101273.59;;;13.32;100.00
11395;BME280;5753;54.402;10.220;2023-02-17T02:31:17;101259.22;;;12.87;100.00
11395;BME280;5753;54.402;10.220;2023-02-17T02:33:56;101251.81;;;13.98;97.87
11395;BME280;5753;54.402;10.220;2023-02-17T02:39:13;101254.75;;;13.44;100.00
11395;BME280;5753;54.402;10.220;2023-02-17T02:41:47;101253.31;;;12.99;100.00
11395;BME280;5753;54.402;10.220;2023-02-17T02:44:17;101250.84;;;13.85;100.00
11395;BME280;5753;54.402;10.220;2023-02-17T02:46:43;101238.81;;;13.94;100.00
11395;BME280;5753;54.402;10.220;2023-02-17T02:49:09;101242.09;;;13.73;98.50
11395;BME280;5753;54.402;10.220;2023-02-17T02:57:12;101242.94;;;14.84;89.92
11395;BME280;5753;54.402;10.220;2023-02-17T03:07:44;101229.91;;;14.78;92.52
11395;BME280;5753;54.402;10.220;2023-02-17T03:10:14;101236.69;;;14.56;92.43
11395;BME280;5753;54.402;10.220;2023-02-17T03:12:40;101229.91;;;14.72;92.60
11395;BME280;5753;54.402;10.220;2023-02-17T03:15:33;101237.72;;;14.79;93.21
11395;BME280;5753;54.402;10.220;2023-02-17T03:18:01;101237.94;;;15.51;86.99
11395;BME280;5753;54.402;10.220;2023-02-17T03:20:32;101233.72;;;15.65;84.15
11395;BME280;5753;54.402;10.220;2023-02-17T03:22:59;101229.16;;;15.05;88.72
11395;BME280;5753;54.402;10.220;2023-02-17T03:25:25;101223.78;;;14.64;91.08
11395;BME280;5753;54.402;10.220;2023-02-17T03:27:52;101208.50;;;15.37;87.96
11395;BME280;5753;54.402;10.220;2023-02-17T03:30:18;101206.72;;;15.21;88.36
11395;BME280;5753;54.402;10.220;2023-02-17T03:32:44;101199.47;;;14.46;95.90
11395;BME280;5753;54.402;10.220;2023-02-17T03:35:12;101199.84;;;15.44;89.77
11395;BME280;5753;54.402;10.220;2023-02-17T03:37:38;101199.69;;;14.86;93.88
11395;BME280;5753;54.402;10.220;2023-02-17T03:40:06;101196.03;;;14.49;93.59
11395;BME280;5753;54.402;10.220;2023-02-17T03:42:33;101202.63;;;14.06;97.18
11395;BME280;5753;54.402;10.220;2023-02-17T03:44:59;101203.13;;;14.87;93.71
11395;BME280;5753;54.402;10.220;2023-02-17T03:47:25;101213.72;;;15.54;87.55
11395;BME280;5753;54.402;10.220;2023-02-17T03:49:51;101215.91;;;14.50;93.31
11395;BME280;5753;54.402;10.220;2023-02-17T03:52:18;101210.22;;;15.44;87.89
11395;BME280;5753;54.402;10.220;2023-02-17T03:54:44;101206.75;;;15.36;87.23
11395;BME280;5753;54.402;10.220;2023-02-17T03:57:10;101201.47;;;15.02;89.22
11395;BME280;5753;54.402;10.220;2023-02-17T03:59:37;101199.72;;;15.01;87.64
11395;BME280;5753;54.402;10.220;2023-02-17T04:02:03;101200.69;;;15.38;88.00
11395;BME280;5753;54.402;10.220;2023-02-17T04:04:29;101182.41;;;15.02;90.34
11395;BME280;5753;54.402;10.220;2023-02-17T04:06:55;101182.34;;;14.79;89.86
11395;BME280;5753;54.402;10.220;2023-02-17T04:09:21;101179.09;;;15.59;87.38
11395;BME280;5753;54.402;10.220;2023-02-17T04:11:47;101186.81;;;15.18;88.42
11395;BME280;5753;54.402;10.220;2023-02-17T04:14:14;101185.00;;;14.94;92.84
11395;BME280;5753;54.402;10.220;2023-02-17T04:16:40;101170.28;;;14.87;94.05
11395;BME280;5753;54.402;10.220;2023-02-17T04:19:06;101169.41;;;14.88;90.21
11395;BME280;5753;54.402;10.220;2023-02-17T04:21:33;101170.38;;;15.27;88.46
11395;BME280;5753;54.402;10.220;2023-02-17T04:24:00;101156.56;;;15.49;87.99
11395;BME280;5753;54.402;10.220;2023-02-17T04:26:27;101151.34;;;15.46;88.32
11395;BME280;5753;54.402;10.220;2023-02-17T04:28:54;101142.41;;;14.46;91.64
11395;BME280;5753;54.402;10.220;2023-02-17T04:31:20;101144.03;;;14.29;96.62
11395;BME280;5753;54.402;10.220;2023-02-17T04:33:46;101135.44;;;14.39;96.34
11395;BME280;5753;54.402;10.220;2023-02-17T04:36:12;101136.13;;;14.09;96.72
11395;BME280;5753;54.402;10.220;2023-02-17T04:38:39;101132.06;;;14.49;96.60
11395;BME280;5753;54.402;10.220;2023-02-17T04:41:05;101139.97;;;14.82;94.56
11395;BME280;5753;54.402;10.220;2023-02-17T04:43:32;101133.09;;;14.99;92.36
11395;BME280;5753;54.402;10.220;2023-02-17T04:45:58;101123.19;;;14.17;100.00
11395;BME280;5753;54.402;10.220;2023-02-17T04:48:25;101110.66;;;15.33;92.09
11395;BME280;5753;54.402;10.220;2023-02-17T04:50:51;101111.53;;;15.23;91.46
11395;BME280;5753;54.402;10.220;2023-02-17T04:53:18;101099.19;;;14.48;96.83
11395;BME280;5753;54.402;10.220;2023-02-17T04:55:48;101103.28;;;14.07;100.00
11395;BME280;5753;54.402;10.220;2023-02-17T04:58:15;101119.41;;;13.66;100.00
11395;BME280;5753;54.402;10.220;2023-02-17T05:00:41;101099.41;;;15.28;92.60
11395;BME280;5753;54.402;10.220;2023-02-17T05:03:08;101100.22;;;14.98;94.49
11395;BME280;5753;54.402;10.220;2023-02-17T05:05:34;101106.13;;;14.56;98.41
11395;BME280;5753;54.402;10.220;2023-02-17T05:08:00;101101.50;;;14.01;100.00
11395;BME280;5753;54.402;10.220;2023-02-17T05:10:26;101095.00;;;14.81;94.31
11395;BME280;5753;54.402;10.220;2023-02-17T05:12:52;101083.75;;;14.91;95.50
11395;BME280;5753;54.402;10.220;2023-02-17T05:15:19;101081.91;;;14.49;97.29
11395;BME280;5753;54.402;10.220;2023-02-17T05:17:45;101078.59;;;15.06;95.84
11395;BME280;5753;54.402;10.220;2023-02-17T05:20:11;101070.88;;;15.63;91.04
11395;BME280;5753;54.402;10.220;2023-02-17T05:22:38;101074.22;;;14.76;96.99
11395;BME280;5753;54.402;10.220;2023-02-17T05:25:04;101060.19;;;14.27;100.00
11395;BME280;5753;54.402;10.220;2023-02-17T05:27:32;101046.47;;;14.56;97.77
11395;BME280;5753;54.402;10.220;2023-02-17T05:29:58;101032.69;;;14.67;100.00
11395;BME280;5753;54.402;10.220;2023-02-17T05:32:24;101039.44;;;14.26;100.00
11395;BME280;5753;54.402;10.220;2023-02-17T05:34:50;101022.34;;;15.07;95.90
11395;BME280;5753;54.402;10.220;2023-02-17T05:37:17;101022.31;;;14.72;97.95
11395;BME280;5753;54.402;10.220;2023-02-17T05:39:43;101025.34;;;13.73;100.00
11395;BME280;5753;54.402;10.220;2023-02-17T05:42:09;101017.66;;;13.85;100.00
11395;BME280;5753;54.402;10.220;2023-02-17T05:44:35;101016.13;;;14.35;100.00
11395;BME280;5753;54.402;10.220;2023-02-17T05:47:02;101006.41;;;13.82;100.00
11395;BME280;5753;54.402;10.220;2023-02-17T05:49:28;101020.44;;;14.34;100.00
11395;BME280;5753;54.402;10.220;2023-02-17T05:51:54;101017.06;;;14.44;100.00
11395;BME280;5753;54.402;10.220;2023-02-17T05:54:20;100998.91;;;14.51;100.00
11395;BME280;5753;54.402;10.220;2023-02-17T05:56:46;100994.59;;;14.51;100.00
11395;BME280;5753;54.402;10.220;2023-02-17T05:59:13;100997.97;;;14.24;100.00
11395;BME280;5753;54.402;10.220;2023-02-17T06:01:39;100981.63;;;14.56;100.00
11395;BME280;5753;54.402;10.220;2023-02-17T06:04:05;100989.91;;;13.69;100.00
11395;BME280;5753;54.402;10.220;2023-02-17T06:06:31;100978.63;;;13.60;100.00
11395;BME280;5753;54.402;10.220;2023-02-17T06:08:57;100974.72;;;14.55;100.00
11395;BME280;5753;54.402;10.220;2023-02-17T06:11:24;100981.94;;;13.34;100.00
11395;BME280;5753;54.402;10.220;2023-02-17T06:13:50;100977.81;;;13.71;100.00
11395;BME280;5753;54.402;10.220;2023-02-17T06:16:16;100970.19;;;13.99;100.00
11395;BME280;5753;54.402;10.220;2023-02-17T06:18:42;100965.81;;;13.84;100.00
11395;BME280;5753;54.402;10.220;2023-02-17T06:21:09;100956.59;;;14.99;97.13
11395;BME280;5753;54.402;10.220;2023-02-17T06:23:35;100947.09;;;14.70;99.92
11395;BME280;5753;54.402;10.220;2023-02-17T06:26:01;100940.94;;;14.29;99.57
11395;BME280;5753;54.402;10.220;2023-02-17T06:28:27;100945.34;;;14.74;100.00
11395;BME280;5753;54.402;10.220;2023-02-17T06:30:53;100950.44;;;14.25;100.00
11395;BME280;5753;54.402;10.220;2023-02-17T06:33:20;100945.31;;;15.29;95.06
11395;BME280;5753;54.402;10.220;2023-02-17T06:35:50;100938.41;;;14.99;98.68
11395;BME280;5753;54.402;10.220;2023-02-17T06:38:17;100934.06;;;14.61;100.00
11395;BME280;5753;54.402;10.220;2023-02-17T06:40:43;100932.34;;;14.54;98.70
11395;BME280;5753;54.402;10.220;2023-02-17T06:43:09;100946.03;;;14.06;100.00
11395;BME280;5753;54.402;10.220;2023-02-17T06:45:36;100934.94;;;14.62;99.96
11395;BME280;5753;54.402;10.220;2023-02-17T06:48:02;100930.63;;;14.59;99.22
11395;BME280;5753;54.402;10.220;2023-02-17T06:50:28;100929.78;;;14.92;96.16
11395;BME280;5753;54.402;10.220;2023-02-17T06:52:54;100931.41;;;14.28;100.00
11395;BME280;5753;54.402;10.220;2023-02-17T06:55:20;100930.66;;;14.67;100.00
11395;BME280;5753;54.402;10.220;2023-02-17T06:57:47;100926.31;;;15.15;94.18
11395;BME280;5753;54.402;10.220;2023-02-17T07:00:13;100930.63;;;14.45;100.00
11395;BME280;5753;54.402;10.220;2023-02-17T07:02:39;100913.31;;;15.01;97.68
11395;BME280;5753;54.402;10.220;2023-02-17T07:05:06;100905.56;;;14.75;99.12
11395;BME280;5753;54.402;10.220;2023-02-17T07:07:33;100896.00;;;15.24;95.53
11395;BME280;5753;54.402;10.220;2023-02-17T07:09:59;100895.13;;;15.08;95.64
11395;BME280;5753;54.402;10.220;2023-02-17T07:12:27;100893.44;;;15.14;94.13
11395;BME280;5753;54.402;10.220;2023-02-17T07:14:54;100902.03;;;14.39;100.00
11395;BME280;5753;54.402;10.220;2023-02-17T07:17:20;100891.63;;;14.18;100.00
11395;BME280;5753;54.402;10.220;2023-02-17T07:19:46;100880.38;;;14.14;100.00
11395;BME280;5753;54.402;10.220;2023-02-17T07:22:12;100880.16;;;13.47;100.00
11395;BME280;5753;54.402;10.220;2023-02-17T07:24:39;100865.69;;;14.06;100.00
11395;BME280;5753;54.402;10.220;2023-02-17T07:27:05;100883.00;;;14.19;100.00
11395;BME280;5753;54.402;10.220;2023-02-17T07:29:32;100867.50;;;14.43;100.00
11395;BME280;5753;54.402;10.220;2023-02-17T07:31:58;100878.75;;;14.44;100.00
11395;BME280;5753;54.402;10.220;2023-02-17T07:34:24;100873.56;;;14.59;100.00
11395;BME280;5753;54.402;10.220;2023-02-17T07:36:50;100877.75;;;13.95;100.00
11395;BME280;5753;54.402;10.220;2023-02-17T07:39:16;100857.97;;;14.23;100.00
11395;BME280;5753;54.402;10.220;2023-02-17T07:41:42;100863.19;;;14.77;100.00
11395;BME280;5753;54.402;10.220;2023-02-17T07:44:09;100839.84;;;14.50;100.00
11395;BME280;5753;54.402;10.220;2023-02-17T07:46:35;100841.53;;;14.21;100.00
11395;BME280;5753;54.402;10.220;2023-02-17T07:49:02;100843.22;;;13.93;100.00
11395;BME280;5753;54.402;10.220;2023-02-17T07:51:28;100828.56;;;14.34;100.00
11395;BME280;5753;54.402;10.220;2023-02-17T07:53:54;100833.75;;;14.40;100.00
11395;BME280;5753;54.402;10.220;2023-02-17T07:56:21;100819.06;;;14.21;100.00
11395;BME280;5753;54.402;10.220;2023-02-17T07:58:48;100830.94;;;13.40;100.00
11395;BME280;5753;54.402;10.220;2023-02-17T08:01:19;100817.19;;;13.59;100.00
11395;BME280;5753;54.402;10.220;2023-02-17T08:03:46;100794.88;;;14.37;100.00
11395;BME280;5753;54.402;10.220;2023-02-17T08:06:16;100788.84;;;14.43;100.00
11395;BME280;5753;54.402;10.220;2023-02-17T08:08:43;100781.88;;;14.83;100.00
11395;BME280;5753;54.402;10.220;2023-02-17T08:11:28;100774.13;;;14.34;100.00
11395;BME280;5753;54.402;10.220;2023-02-17T08:14:13;100775.88;;;14.26;100.00
11395;BME280;5753;54.402;10.220;2023-02-17T08:16:39;100781.91;;;14.30;100.00
11395;BME280;5753;54.402;10.220;2023-02-17T08:19:05;100770.59;;;13.71;100.00
11395;BME280;5753;54.402;10.220;2023-02-17T08:21:32;100777.59;;;14.55;100.00
11395;BME280;5753;54.402;10.220;2023-02-17T08:23:58;100752.53;;;14.47;100.00
11395;BME280;5753;54.402;10.220;2023-02-17T08:26:25;100748.19;;;14.07;100.00
11395;BME280;5753;54.402;10.220;2023-02-17T08:28:51;100755.97;;;14.36;100.00
11395;BME280;5753;54.402;10.220;2023-02-17T08:31:30;100732.63;;;14.53;100.00
11395;BME280;5753;54.402;10.220;2023-02-17T08:33:56;100728.31;;;14.38;100.00
11395;BME280;5753;54.402;10.220;2023-02-17T08:36:24;100712.78;;;13.88;100.00
11395;BME280;5753;54.402;10.220;2023-02-17T08:38:51;100700.59;;;14.64;100.00
11395;BME280;5753;54.402;10.220;2023-02-17T08:41:22;100700.69;;;13.86;100.00
11395;BME280;5753;54.402;10.220;2023-02-17T08:43:49;100710.19;;;14.07;100.00
11395;BME280;5753;54.402;10.220;2023-02-17T08:46:17;100691.16;;;14.14;100.00
11395;BME280;5753;54.402;10.220;2023-02-17T08:48:44;100686.00;;;13.99;100.00
11395;BME280;5753;54.402;10.220;2023-02-17T08:51:14;100685.13;;;14.32;100.00
11395;BME280;5753;54.402;10.220;2023-02-17T08:53:42;100688.44;;;14.89;100.00
11395;BME280;5753;54.402;10.220;2023-02-17T08:56:08;100698.06;;;14.51;100.00
11395;BME280;5753;54.402;10.220;2023-02-17T08:58:35;100713.63;;;14.51;100.00
11395;BME280;5753;54.402;10.220;2023-02-17T09:01:02;100733.47;;;13.60;100.00
11395;BME280;5753;54.402;10.220;2023-02-17T09:03:29;100738.69;;;14.45;100.00
11395;BME280;5753;54.402;10.220;2023-02-17T09:05:56;100730.91;;;14.36;100.00
11395;BME280;5753;54.402;10.220;2023-02-17T09:08:23;100725.72;;;14.33;100.00
11395;BME280;5753;54.402;10.220;2023-02-17T09:10:50;100706.72;;;14.49;100.00
11395;BME280;5753;54.402;10.220;2023-02-17T09:13:16;100710.16;;;14.36;100.00
11395;BME280;5753;54.402;10.220;2023-02-17T09:15:43;100683.34;;;14.54;100.00
11395;BME280;5753;54.402;10.220;2023-02-17T09:18:09;100688.53;;;14.59;100.00
11395;BME280;5753;54.402;10.220;2023-02-17T09:20:36;100706.75;;;14.19;100.00
11395;BME280;5753;54.402;10.220;2023-02-17T09:23:05;100680.81;;;14.22;100.00
11395;BME280;5753;54.402;10.220;2023-02-17T09:25:31;100673.84;;;14.52;100.00
11395;BME280;5753;54.402;10.220;2023-02-17T09:27:58;100656.63;;;14.09;100.00
11395;BME280;5753;54.402;10.220;2023-02-17T09:30:24;100670.41;;;14.34;100.00
11395;BME280;5753;54.402;10.220;2023-02-17T09:32:50;100680.78;;;13.40;100.00
11395;BME280;5753;54.402;10.220;2023-02-17T09:35:17;100664.41;;;14.03;100.00
11395;BME280;5753;54.402;10.220;2023-02-17T09:37:44;100661.72;;;14.57;100.00
11395;BME280;5753;54.402;10.220;2023-02-17T09:43:03;100653.19;;;14.00;100.00
11395;BME280;5753;54.402;10.220;2023-02-17T09:45:34;100656.63;;;13.65;100.00
11395;BME280;5753;54.402;10.220;2023-02-17T09:48:05;100684.91;;;15.01;100.00
11395;BME280;5753;54.402;10.220;2023-02-17T09:50:58;100685.00;;;14.81;100.00
11395;BME280;5753;54.402;10.220;2023-02-17T09:55:57;100672.16;;;14.11;100.00
11395;BME280;5753;54.402;10.220;2023-02-17T09:58:45;100647.13;;;13.98;100.00
11395;BME280;5753;54.402;10.220;2023-02-17T10:01:32;100661.78;;;14.35;100.00
11395;BME280;5753;54.402;10.220;2023-02-17T10:04:05;100636.59;;;14.75;100.00
11395;BME280;5753;54.402;10.220;2023-02-17T10:12:02;100627.13;;;14.58;100.00
11395;BME280;5753;54.402;10.220;2023-02-17T10:14:51;100623.31;;;15.27;100.00
11395;BME280;5753;54.402;10.220;2023-02-17T10:20:10;100656.66;;;13.83;100.00
11395;BME280;5753;54.402;10.220;2023-02-17T10:22:38;100644.47;;;14.49;100.00
11395;BME280;5753;54.402;10.220;2023-02-17T10:25:35;100635.91;;;14.02;100.00
11395;BME280;5753;54.402;10.220;2023-02-17T10:28:08;100637.56;;;14.41;100.00
11395;BME280;5753;54.402;10.220;2023-02-17T10:31:01;100625.47;;;14.32;100.00
11395;BME280;5753;54.402;10.220;2023-02-17T10:38:50;100614.22;;;14.45;100.00
11395;BME280;5753;54.402;10.220;2023-02-17T10:41:26;100616.78;;;14.52;100.00
11395;BME280;5753;54.402;10.220;2023-02-17T10:43:52;100622.94;;;13.18;100.00
11395;BME280;5753;54.402;10.220;2023-02-17T10:46:27;100624.59;;;13.01;100.00
11395;BME280;5753;54.402;10.220;2023-02-17T10:48:55;100634.19;;;13.43;100.00
11395;BME280;5753;54.402;10.220;2023-02-17T10:51:25;100660.97;;;13.98;100.00
11395;BME280;5753;54.402;10.220;2023-02-17T10:53:59;100652.25;;;14.36;100.00
11395;BME280;5753;54.402;10.220;2023-02-17T10:56:31;100609.88;;;14.41;100.00
11395;BME280;5753;54.402;10.220;2023-02-17T10:59:19;100625.56;;;13.59;100.00
11395;BME280;5753;54.402;10.220;2023-02-17T11:01:48;100630.69;;;13.24;100.00
11395;BME280;5753;54.402;10.220;2023-02-17T11:04:14;100633.75;;;12.24;100.00
11395;BME280;5753;54.402;10.220;2023-02-17T11:06:44;100629.88;;;13.31;100.00
11395;BME280;5753;54.402;10.220;2023-02-17T11:09:19;100625.47;;;13.10;100.00
11395;BME280;5753;54.402;10.220;2023-02-17T11:11:51;100620.38;;;13.83;100.00
11395;BME280;5753;54.402;10.220;2023-02-17T11:14:25;100619.41;;;14.35;100.00
11395;BME280;5753;54.402;10.220;2023-02-17T11:17:01;100598.75;;;14.09;100.00
11395;BME280;5753;54.402;10.220;2023-02-17T11:19:33;100600.53;;;13.38;100.00
11395;BME280;5753;54.402;10.220;2023-02-17T11:22:02;100597.94;;;13.52;100.00
11395;BME280;5753;54.402;10.220;2023-02-17T11:24:31;100604.75;;;14.29;100.00
11395;BME280;5753;54.402;10.220;2023-02-17T11:27:08;100610.03;;;13.59;100.00
11395;BME280;5753;54.402;10.220;2023-02-17T11:29:35;100594.41;;;14.11;100.00
11395;BME280;5753;54.402;10.220;2023-02-17T11:34:31;100572.03;;;13.89;100.00
11395;BME280;5753;54.402;10.220;2023-02-17T11:39:44;100572.91;;;13.49;100.00
11395;BME280;5753;54.402;10.220;2023-02-17T11:42:24;100594.47;;;13.83;100.00
11395;BME280;5753;54.402;10.220;2023-02-17T11:44:51;100590.97;;;12.95;100.00
11395;BME280;5753;54.402;10.220;2023-02-17T11:58:42;100577.22;;;13.73;100.00
11395;BME280;5753;54.402;10.220;2023-02-17T12:01:44;100564.28;;;13.50;100.00
11395;BME280;5753;54.402;10.220;2023-02-17T12:04:27;100559.91;;;12.90;100.00
11395;BME280;5753;54.402;10.220;2023-02-17T12:16:11;100588.28;;;12.76;100.00
11395;BME280;5753;54.402;10.220;2023-02-17T12:19:00;100564.28;;;13.47;100.00
11395;BME280;5753;54.402;10.220;2023-02-17T12:26:43;100542.72;;;13.36;100.00
11395;BME280;5753;54.402;10.220;2023-02-17T12:35:01;100549.59;;;13.66;100.00
11395;BME280;5753;54.402;10.220;2023-02-17T12:37:31;100556.53;;;13.35;100.00
11395;BME280;5753;54.402;10.220;2023-02-17T12:42:35;100534.06;;;13.20;100.00
11395;BME280;5753;54.402;10.220;2023-02-17T12:45:20;100530.59;;;13.09;100.00
11395;BME280;5753;54.402;10.220;2023-02-17T12:50:36;100561.69;;;13.52;100.00
11395;BME280;5753;54.402;10.220;2023-02-17T12:53:14;100544.44;;;13.20;100.00
11395;BME280;5753;54.402;10.220;2023-02-17T12:55:47;100529.63;;;14.08;100.00
11395;BME280;5753;54.402;10.220;2023-02-17T12:58:21;100542.53;;;14.26;100.00
11395;BME280;5753;54.402;10.220;2023-02-17T13:01:12;100542.69;;;13.65;100.00
11395;BME280;5753;54.402;10.220;2023-02-17T13:03:41;100537.50;;;13.83;100.00
11395;BME280;5753;54.402;10.220;2023-02-17T13:06:18;100590.16;;;13.20;100.00
11395;BME280;5753;54.402;10.220;2023-02-17T13:11:34;100537.50;;;13.83;100.00
11395;BME280;5753;54.402;10.220;2023-02-17T13:14:11;100565.13;;;13.78;100.00
11395;BME280;5753;54.402;10.220;2023-02-17T13:16:45;100545.25;;;13.01;100.00
11395;BME280;5753;54.402;10.220;2023-02-17T13:19:13;100535.72;;;12.71;100.00
11395;BME280;5753;54.402;10.220;2023-02-17T13:21:52;100562.50;;;13.16;100.00
11395;BME280;5753;54.402;10.220;2023-02-17T13:24:37;100565.16;;;13.54;100.00
11395;BME280;5753;54.402;10.220;2023-02-17T13:27:29;100580.63;;;13.05;100.00
11395;BME280;5753;54.402;10.220;2023-02-17T13:32:41;100546.91;;;14.10;100.00
11395;BME280;5753;54.402;10.220;2023-02-17T13:35:31;100563.31;;;14.20;100.00
11395;BME280;5753;54.402;10.220;2023-02-17T13:37:58;100552.22;;;13.49;100.00
11395;BME280;5753;54.402;10.220;2023-02-17T13:40:31;100553.03;;;13.04;100.00
11395;BME280;5753;54.402;10.220;2023-02-17T13:43:08;100597.09;;;13.74;100.00
11395;BME280;5753;54.402;10.220;2023-02-17T13:45:47;100552.91;;;14.29;100.00
11395;BME280;5753;54.402;10.220;2023-02-17T13:48:24;100555.69;;;13.27;100.00
11395;BME280;5753;54.402;10.220;2023-02-17T13:53:38;100593.59;;;13.71;100.00
11395;BME280;5753;54.402;10.220;2023-02-17T13:56:10;100554.81;;;13.33;100.00
11395;BME280;5753;54.402;10.220;2023-02-17T13:58:41;100533.09;;;12.60;100.00
11395;BME280;5753;54.402;10.220;2023-02-17T14:01:14;100531.44;;;13.89;100.00
11395;BME280;5753;54.402;10.220;2023-02-17T14:03:48;100553.81;;;14.07;100.00
11395;BME280;5753;54.402;10.220;2023-02-17T14:08:56;100568.34;;;14.57;99.34
11395;BME280;5753;54.402;10.220;2023-02-17T14:11:25;100559.59;;;14.82;93.59
11395;BME280;5753;54.402;10.220;2023-02-17T14:13:54;100557.34;;;13.69;99.71
11395;BME280;5753;54.402;10.220;2023-02-17T14:16:40;100557.66;;;15.08;89.40
11395;BME280;5753;54.402;10.220;2023-02-17T14:19:13;100557.81;;;14.90;85.81
11395;BME280;5753;54.402;10.220;2023-02-17T14:21:55;100555.72;;;15.38;86.41
11395;BME280;5753;54.402;10.220;2023-02-17T14:24:28;100560.47;;;14.78;87.13
11395;BME280;5753;54.402;10.220;2023-02-17T14:26:58;100544.38;;;15.47;82.29
11395;BME280;5753;54.402;10.220;2023-02-17T14:29:24;100581.31;;;14.67;88.76
11395;BME280;5753;54.402;10.220;2023-02-17T14:31:52;100592.75;;;13.64;93.95
11395;BME280;5753;54.402;10.220;2023-02-17T14:34:26;100571.66;;;14.86;86.06
11395;BME280;5753;54.402;10.220;2023-02-17T14:36:52;100568.06;;;15.08;83.65